createdAt,value
2023-01-19T00:02:30.012Z,97379.88
2023-01-19T00:05:03.931Z,97387.66
2023-01-19T00:07:38.941Z,97384.16
2023-01-19T00:10:11.779Z,97393.19
2023-01-19T00:12:44.218Z,97392.69
2023-01-19T00:15:16.111Z,97391.66
2023-01-19T00:17:48.869Z,97386.13
2023-01-19T00:20:21.161Z,97391.34
2023-01-19T00:22:53.456Z,97389.25
2023-01-19T00:25:25.306Z,97395.84
2023-01-19T00:28:00.435Z,97399.69
2023-01-19T00:30:33.594Z,97399.63
2023-01-19T00:33:06.209Z,97403.25
2023-01-19T00:35:39.046Z,97403.59
2023-01-19T00:38:12.781Z,97404.22
2023-01-19T00:40:45.080Z,97404.84
2023-01-19T00:43:16.993Z,97406.94
2023-01-19T00:45:49.725Z,97411.44
2023-01-19T00:48:21.771Z,97402.34
2023-01-19T00:50:54.798Z,97399.31
2023-01-19T00:53:32.732Z,97410.22
2023-01-19T00:56:05.584Z,97406.22
2023-01-19T00:58:38.424Z,97413.25
2023-01-19T01:01:10.367Z,97418.81
2023-01-19T01:03:42.987Z,97405.47
2023-01-19T01:06:15.896Z,97407.06
2023-01-19T01:08:48.381Z,97425.06
2023-01-19T01:11:20.733Z,97419.16
2023-01-19T01:13:53.350Z,97418.69
2023-01-19T01:16:25.569Z,97423.72
2023-01-19T01:18:58.269Z,97420.44
2023-01-19T01:21:30.667Z,97425.16
2023-01-19T01:24:03.180Z,97429.00
2023-01-19T01:26:35.913Z,97432.38
2023-01-19T01:29:08.574Z,97427.81
2023-01-19T01:31:41.427Z,97424.22
2023-01-19T01:34:13.807Z,97431.81
2023-01-19T01:36:46.102Z,97428.22
2023-01-19T01:39:18.799Z,97425.56
2023-01-19T01:41:51.075Z,97429.22
2023-01-19T01:45:03.436Z,97423.31
2023-01-19T01:47:47.739Z,97434.31
2023-01-19T01:50:29.528Z,97440.81
2023-01-19T01:53:11.593Z,97434.59
2023-01-19T01:55:50.076Z,97437.00
2023-01-19T01:58:23.178Z,97439.88
2023-01-19T02:01:13.894Z,97442.41
2023-01-19T02:03:45.844Z,97444.31
2023-01-19T02:06:18.544Z,97443.22
2023-01-19T02:09:23.602Z,97443.41
2023-01-19T02:12:14.257Z,97446.56
2023-01-19T02:14:46.117Z,97440.47
2023-01-19T02:17:18.815Z,97440.22
2023-01-19T02:19:50.961Z,97439.56
2023-01-19T02:22:36.385Z,97442.88
2023-01-19T02:25:08.772Z,97435.94
2023-01-19T02:27:42.076Z,97445.38
2023-01-19T02:30:16.509Z,97438.47
2023-01-19T02:32:50.021Z,97436.72
2023-01-19T02:35:23.273Z,97437.38
2023-01-19T02:37:56.906Z,97432.97
2023-01-19T02:40:29.119Z,97442.97
2023-01-19T02:43:03.093Z,97439.94
2023-01-19T02:45:38.722Z,97437.34
2023-01-19T02:51:17.355Z,97428.38
2023-01-19T02:54:49.506Z,97432.47
2023-01-19T02:58:03.420Z,97446.47
2023-01-19T03:01:14.422Z,97433.06
2023-01-19T03:04:07.745Z,97436.75
2023-01-19T03:07:04.183Z,97435.13
2023-01-19T03:10:04.431Z,97438.53
2023-01-19T03:12:47.672Z,97442.16
2023-01-19T03:15:50.346Z,97445.63
2023-01-19T03:18:27.728Z,97448.72
2023-01-19T03:21:03.494Z,97439.72
2023-01-19T03:23:37.915Z,97433.47
2023-01-19T03:26:15.784Z,97441.91
2023-01-19T03:28:49.411Z,97449.66
2023-01-19T03:34:24.398Z,97452.97
2023-01-19T03:37:02.336Z,97443.16
2023-01-19T03:39:34.631Z,97443.38
2023-01-19T03:42:13.427Z,97433.63
2023-01-19T03:44:46.595Z,97437.81
2023-01-19T03:47:20.650Z,97440.38
2023-01-19T03:49:53.983Z,97437.81
2023-01-19T03:52:33.897Z,97445.13
2023-01-19T03:55:06.734Z,97437.72
2023-01-19T03:57:39.470Z,97441.88
2023-01-19T04:00:12.381Z,97445.84
2023-01-19T04:02:45.174Z,97438.63
2023-01-19T04:05:18.416Z,97434.22
2023-01-19T04:07:52.862Z,97438.13
2023-01-19T04:10:25.322Z,97441.38
2023-01-19T04:13:02.015Z,97444.13
2023-01-19T04:15:34.966Z,97450.28
2023-01-19T04:18:07.026Z,97451.03
2023-01-19T04:20:39.785Z,97450.28
2023-01-19T04:23:12.281Z,97459.44
2023-01-19T04:25:44.648Z,97457.34
2023-01-19T04:28:16.690Z,97454.69
2023-01-19T04:30:52.559Z,97463.84
2023-01-19T04:33:26.956Z,97452.63
2023-01-19T04:35:59.881Z,97460.84
2023-01-19T04:38:31.882Z,97466.53
2023-01-19T04:41:04.709Z,97463.19
2023-01-19T04:43:37.792Z,97465.00
2023-01-19T04:46:10.515Z,97467.22
2023-01-19T04:48:43.209Z,97465.31
2023-01-19T04:51:18.669Z,97466.38
2023-01-19T04:53:50.565Z,97462.28
2023-01-19T04:56:23.293Z,97468.28
2023-01-19T04:58:55.689Z,97461.88
2023-01-19T05:01:28.120Z,97463.69
2023-01-19T05:04:01.494Z,97461.41
2023-01-19T05:06:34.722Z,97466.03
2023-01-19T05:09:13.464Z,97466.88
2023-01-19T05:11:46.004Z,97471.91
2023-01-19T05:14:17.974Z,97465.22
2023-01-19T05:16:50.670Z,97471.72
2023-01-19T05:19:22.708Z,97471.78
2023-01-19T05:21:55.476Z,97468.13
2023-01-19T05:24:27.365Z,97480.00
2023-01-19T05:27:00.114Z,97480.94
2023-01-19T05:29:34.853Z,97483.78
2023-01-19T05:32:06.799Z,97484.19
2023-01-19T05:34:39.812Z,97489.56
2023-01-19T05:37:11.771Z,97501.72
2023-01-19T05:39:44.473Z,97502.47
2023-01-19T05:42:17.125Z,97508.88
2023-01-19T05:44:49.914Z,97504.16
2023-01-19T05:47:21.802Z,97504.38
2023-01-19T05:49:54.687Z,97502.25
2023-01-19T05:52:27.064Z,97508.22
2023-01-19T05:55:00.109Z,97503.72
2023-01-19T05:57:32.574Z,97506.69
2023-01-19T06:00:05.436Z,97505.56
2023-01-19T06:02:41.587Z,97501.44
2023-01-19T06:05:13.550Z,97509.09
2023-01-19T06:07:46.290Z,97522.31
2023-01-19T06:10:18.340Z,97524.50
2023-01-19T06:12:52.142Z,97521.88
2023-01-19T06:15:45.070Z,97517.75
2023-01-19T06:18:18.203Z,97524.63
2023-01-19T06:20:50.226Z,97519.97
2023-01-19T06:23:23.552Z,97525.41
2023-01-19T06:25:56.068Z,97535.94
2023-01-19T06:28:31.395Z,97526.66
2023-01-19T06:31:04.429Z,97523.47
2023-01-19T06:33:37.217Z,97525.69
2023-01-19T06:36:10.066Z,97530.06
2023-01-19T06:38:42.343Z,97520.03
2023-01-19T06:41:15.064Z,97523.47
2023-01-19T06:43:46.970Z,97526.84
2023-01-19T06:46:19.727Z,97536.28
2023-01-19T06:48:51.789Z,97537.22
2023-01-19T06:51:46.168Z,97528.63
2023-01-19T06:54:18.035Z,97526.56
2023-01-19T06:56:50.753Z,97530.38
2023-01-19T07:02:26.966Z,97537.44
2023-01-19T07:05:00.372Z,97537.59
2023-01-19T07:07:33.576Z,97534.91
2023-01-19T07:10:08.621Z,97534.47
2023-01-19T07:12:40.884Z,97537.19
2023-01-19T07:15:16.300Z,97542.91
2023-01-19T07:17:48.629Z,97545.50
2023-01-19T07:20:20.519Z,97531.91
2023-01-19T07:22:57.528Z,97537.69
2023-01-19T07:25:30.896Z,97539.88
2023-01-19T07:28:04.135Z,97531.72
2023-01-19T07:30:36.163Z,97539.19
2023-01-19T07:33:08.774Z,97540.22
2023-01-19T07:35:40.756Z,97548.78
2023-01-19T07:38:13.461Z,97546.56
2023-01-19T07:40:47.015Z,97546.16
2023-01-19T07:43:20.206Z,97548.19
2023-01-19T07:45:52.772Z,97540.13
2023-01-19T07:48:25.931Z,97549.94
2023-01-19T07:51:12.939Z,97557.72
2023-01-19T07:53:46.788Z,97555.47
2023-01-19T07:56:19.392Z,97559.44
2023-01-19T07:58:52.874Z,97560.78
2023-01-19T08:01:24.937Z,97565.41
2023-01-19T08:03:57.746Z,97566.75
2023-01-19T08:06:38.653Z,97570.41
2023-01-19T08:09:12.118Z,97583.00
2023-01-19T08:13:20.177Z,97578.91
2023-01-19T08:15:56.737Z,97582.19
2023-01-19T08:18:29.913Z,97571.38
2023-01-19T08:21:02.389Z,97570.00
2023-01-19T08:23:35.637Z,97567.88
2023-01-19T08:26:30.204Z,97566.81
2023-01-19T08:29:05.643Z,97571.50
2023-01-19T08:31:38.808Z,97570.41
2023-01-19T08:34:11.607Z,97575.81
2023-01-19T08:36:43.522Z,97579.06
2023-01-19T08:39:18.339Z,97576.63
2023-01-19T08:44:57.609Z,97587.13
2023-01-19T08:47:30.702Z,97591.25
2023-01-19T08:53:03.412Z,97589.00
2023-01-19T08:55:37.130Z,97592.16
2023-01-19T08:58:10.220Z,97599.63
2023-01-19T09:00:44.324Z,97617.63
2023-01-19T09:03:36.838Z,97612.50
2023-01-19T09:06:10.916Z,97617.03
2023-01-19T09:08:44.399Z,97614.06
2023-01-19T09:11:17.465Z,97604.91
2023-01-19T09:13:50.600Z,97599.66
2023-01-19T09:16:27.011Z,97601.22
2023-01-19T09:18:59.811Z,97599.91
2023-01-19T09:21:31.707Z,97590.06
2023-01-19T09:24:04.703Z,97602.59
2023-01-19T09:26:37.622Z,97597.84
2023-01-19T09:29:10.149Z,97604.94
2023-01-19T09:31:43.790Z,97604.03
2023-01-19T09:34:16.571Z,97600.63
2023-01-19T09:36:48.464Z,97589.53
2023-01-19T09:39:21.773Z,97585.50
2023-01-19T09:42:08.093Z,97605.94
2023-01-19T09:44:45.567Z,97594.81
2023-01-19T09:47:25.206Z,97597.88
2023-01-19T09:50:05.486Z,97604.88
2023-01-19T09:52:44.368Z,97615.84
2023-01-19T09:55:25.620Z,97594.34
2023-01-19T09:57:59.498Z,97601.28
2023-01-19T10:00:33.116Z,97606.03
2023-01-19T10:03:16.146Z,97606.59
2023-01-19T10:05:57.336Z,97606.00
2023-01-19T10:08:47.372Z,97610.16
2023-01-19T10:11:52.095Z,97611.59
2023-01-19T10:14:43.988Z,97607.00
2023-01-19T10:17:57.030Z,97614.72
2023-01-19T10:20:44.125Z,97598.28
2023-01-19T10:23:44.990Z,97606.00
2023-01-19T10:26:26.377Z,97607.88
2023-01-19T10:29:08.417Z,97614.47
2023-01-19T10:31:44.891Z,97606.91
2023-01-19T10:34:23.507Z,97610.28
2023-01-19T10:37:05.997Z,97604.41
2023-01-19T10:39:42.455Z,97607.78
2023-01-19T10:42:17.350Z,97617.06
2023-01-19T10:44:49.975Z,97616.63
2023-01-19T10:47:36.722Z,97607.16
2023-01-19T10:50:36.638Z,97617.56
2023-01-19T10:53:21.799Z,97618.53
2023-01-19T10:56:16.693Z,97615.97
2023-01-19T10:58:48.611Z,97614.28
2023-01-19T11:01:26.083Z,97604.13
2023-01-19T11:04:05.716Z,97605.97
2023-01-19T11:06:38.546Z,97600.09
2023-01-19T11:09:19.882Z,97601.75
2023-01-19T11:11:54.253Z,97594.81
2023-01-19T11:14:30.401Z,97592.97
2023-01-19T11:17:02.793Z,97590.03
2023-01-19T11:19:35.184Z,97577.22
2023-01-19T11:22:24.820Z,97582.06
2023-01-19T11:25:00.925Z,97585.69
2023-01-19T11:27:54.481Z,97575.84
2023-01-19T11:30:27.236Z,97579.00
2023-01-19T11:33:00.422Z,97584.41
2023-01-19T11:35:35.490Z,97586.56
2023-01-19T11:38:18.815Z,97575.41
2023-01-19T11:40:55.354Z,97570.22
2023-01-19T11:43:47.462Z,97575.69
2023-01-19T11:46:28.309Z,97565.56
2023-01-19T11:52:25.063Z,97581.94
2023-01-19T11:55:19.381Z,97571.63
2023-01-19T11:57:54.610Z,97561.81
2023-01-19T12:00:34.572Z,97564.00
2023-01-19T12:03:24.426Z,97566.84
2023-01-19T12:06:07.548Z,97561.63
2023-01-19T12:08:49.891Z,97547.09
2023-01-19T12:11:35.147Z,97563.78
2023-01-19T12:14:29.288Z,97557.69
2023-01-19T12:17:06.386Z,97547.41
2023-01-19T12:19:56.580Z,97545.34
2023-01-19T12:22:30.690Z,97554.16
2023-01-19T12:30:52.481Z,97568.91
2023-01-19T12:33:39.649Z,97565.06
2023-01-19T12:36:26.381Z,97564.78
2023-01-19T12:39:20.272Z,97553.84
2023-01-19T12:45:17.712Z,97552.38
2023-01-19T12:47:56.755Z,97553.38
2023-01-19T12:50:37.607Z,97564.16
2023-01-19T12:53:20.062Z,97564.84
2023-01-19T12:56:01.396Z,97551.88
2023-01-19T12:58:34.950Z,97562.00
2023-01-19T13:01:21.439Z,97559.75
2023-01-19T13:04:01.676Z,97555.72
2023-01-19T13:06:49.346Z,97556.69
2023-01-19T13:09:39.226Z,97558.31
2023-01-19T13:12:15.181Z,97558.75
2023-01-19T13:14:47.845Z,97558.88
2023-01-19T13:17:30.287Z,97561.63
2023-01-19T13:20:27.530Z,97564.28
2023-01-19T13:23:50.350Z,97560.31
2023-01-19T13:26:27.367Z,97570.78
2023-01-19T13:29:31.011Z,97569.13
2023-01-19T13:32:26.050Z,97564.44
2023-01-19T13:37:55.059Z,97558.31
2023-01-19T13:40:38.642Z,97557.47
2023-01-19T13:43:29.500Z,97561.75
2023-01-19T13:46:01.782Z,97560.31
2023-01-19T13:48:34.880Z,97561.53
2023-01-19T13:51:18.082Z,97561.00
2023-01-19T13:54:03.657Z,97555.59
2023-01-19T13:56:36.403Z,97549.97
2023-01-19T13:59:12.605Z,97550.50
2023-01-19T14:01:47.106Z,97553.69
2023-01-19T14:04:34.270Z,97558.25
2023-01-19T14:07:28.528Z,97559.00
2023-01-19T14:10:08.277Z,97563.59
2023-01-19T14:12:58.167Z,97570.78
2023-01-19T14:15:34.999Z,97561.50
2023-01-19T14:18:16.825Z,97560.59
2023-01-19T14:21:07.595Z,97560.56
2023-01-19T14:24:09.692Z,97556.03
2023-01-19T14:26:54.781Z,97564.47
2023-01-19T14:29:32.647Z,97561.97
2023-01-19T14:32:19.758Z,97560.53
2023-01-19T14:35:14.951Z,97552.84
2023-01-19T14:37:50.932Z,97551.84
2023-01-19T14:40:24.500Z,97567.53
2023-01-19T14:43:06.532Z,97561.00
2023-01-19T14:45:46.888Z,97554.31
2023-01-19T14:48:22.703Z,97557.41
2023-01-19T14:51:04.008Z,97559.78
2023-01-19T14:56:34.064Z,97557.91
2023-01-19T14:59:11.204Z,97557.91
2023-01-19T15:01:43.691Z,97556.69
2023-01-19T15:07:17.667Z,97558.94
2023-01-19T15:09:50.709Z,97562.22
2023-01-19T15:12:27.050Z,97556.84
2023-01-19T15:14:59.780Z,97557.28
2023-01-19T15:17:33.291Z,97551.56
2023-01-19T15:20:16.073Z,97547.63
2023-01-19T15:22:49.854Z,97560.53
2023-01-19T15:25:27.099Z,97559.56
2023-01-19T15:28:00.329Z,97554.03
2023-01-19T15:30:35.608Z,97565.88
2023-01-19T15:33:21.716Z,97552.31
2023-01-19T15:35:55.559Z,97560.78
2023-01-19T15:38:31.461Z,97563.44
2023-01-19T15:41:03.841Z,97558.06
2023-01-19T15:43:36.753Z,97557.16
2023-01-19T15:46:13.710Z,97554.84
2023-01-19T15:48:47.036Z,97557.38
2023-01-19T15:51:23.184Z,97551.09
2023-01-19T15:53:56.538Z,97560.94
2023-01-19T15:56:30.768Z,97553.13
2023-01-19T15:59:03.533Z,97557.69
2023-01-19T16:01:36.151Z,97551.91
2023-01-19T16:04:11.767Z,97552.06
2023-01-19T16:06:43.711Z,97557.06
2023-01-19T16:09:18.939Z,97553.97
2023-01-19T16:12:09.069Z,97553.41
2023-01-19T16:14:42.089Z,97549.75
2023-01-19T16:17:13.976Z,97545.75
2023-01-19T16:19:48.772Z,97538.56
2023-01-19T16:22:20.691Z,97549.94
2023-01-19T16:24:53.624Z,97554.47
2023-01-19T16:27:26.484Z,97550.09
2023-01-19T16:30:05.235Z,97554.38
2023-01-19T16:32:38.345Z,97554.41
2023-01-19T16:35:10.846Z,97537.31
2023-01-19T16:37:43.168Z,97541.47
2023-01-19T16:40:16.184Z,97541.38
2023-01-19T16:42:48.604Z,97538.78
2023-01-19T16:45:20.487Z,97535.44
2023-01-19T16:47:53.335Z,97540.81
2023-01-19T16:50:25.265Z,97551.16
2023-01-19T16:52:58.571Z,97541.88
2023-01-19T16:55:30.568Z,97536.69
2023-01-19T16:58:03.429Z,97534.91
2023-01-19T17:00:35.389Z,97537.53
2023-01-19T17:03:08.768Z,97537.44
2023-01-19T17:05:40.813Z,97545.31
2023-01-19T17:08:14.288Z,97540.00
2023-01-19T17:10:47.916Z,97542.50
2023-01-19T17:13:19.823Z,97550.56
2023-01-19T17:15:53.638Z,97548.69
2023-01-19T17:18:25.754Z,97546.81
2023-01-19T17:21:07.507Z,97543.44
2023-01-19T17:23:43.089Z,97541.78
2023-01-19T17:26:17.336Z,97540.59
2023-01-19T17:28:49.934Z,97535.72
2023-01-19T17:31:23.064Z,97545.75
2023-01-19T17:33:55.544Z,97533.13
2023-01-19T17:36:30.530Z,97552.31
2023-01-19T17:39:08.716Z,97545.59
2023-01-19T17:41:41.724Z,97545.06
2023-01-19T17:44:14.257Z,97555.16
2023-01-19T17:46:47.492Z,97547.84
2023-01-19T17:49:19.460Z,97559.56
2023-01-19T17:51:53.991Z,97536.31
2023-01-19T17:54:26.388Z,97545.63
2023-01-19T17:56:59.227Z,97551.41
2023-01-19T17:59:32.578Z,97555.22
2023-01-19T18:02:09.633Z,97550.03
2023-01-19T18:04:41.658Z,97545.41
2023-01-19T18:07:15.351Z,97547.19
2023-01-19T18:09:47.397Z,97552.69
2023-01-19T18:12:20.773Z,97554.06
2023-01-19T18:14:53.528Z,97544.00
2023-01-19T18:17:25.659Z,97546.63
2023-01-19T18:19:58.907Z,97548.75
2023-01-19T18:22:32.063Z,97543.69
2023-01-19T18:25:05.205Z,97539.84
2023-01-19T18:27:37.092Z,97542.38
2023-01-19T18:30:10.840Z,97539.66
2023-01-19T18:32:43.500Z,97542.88
2023-01-19T18:35:16.253Z,97545.75
2023-01-19T18:37:48.647Z,97543.94
2023-01-19T18:40:20.937Z,97534.19
2023-01-19T18:42:53.579Z,97537.22
2023-01-19T18:45:26.320Z,97543.94
2023-01-19T18:47:58.202Z,97546.28
2023-01-19T18:50:31.328Z,97550.78
2023-01-19T18:53:05.043Z,97542.66
2023-01-19T18:55:37.332Z,97536.25
2023-01-19T18:58:10.035Z,97535.66
2023-01-19T19:00:41.952Z,97539.53
2023-01-19T19:03:15.032Z,97540.91
2023-01-19T19:05:47.489Z,97540.91
2023-01-19T19:08:20.809Z,97533.97
2023-01-19T19:10:52.706Z,97540.22
2023-01-19T19:13:25.821Z,97532.63
2023-01-19T19:16:07.452Z,97538.06
2023-01-19T19:18:39.898Z,97547.91
2023-01-19T19:21:13.253Z,97528.53
2023-01-19T19:23:54.668Z,97529.44
2023-01-19T19:26:28.725Z,97522.75
2023-01-19T19:29:01.644Z,97535.03
2023-01-19T19:31:35.087Z,97534.81
2023-01-19T19:34:09.390Z,97538.84
2023-01-19T19:36:42.481Z,97523.84
2023-01-19T19:39:14.441Z,97530.72
2023-01-19T19:41:49.631Z,97521.78
2023-01-19T19:44:21.917Z,97529.13
2023-01-19T19:46:54.263Z,97530.91
2023-01-19T19:49:27.490Z,97535.94
2023-01-19T19:51:59.370Z,97540.06
2023-01-19T19:54:32.075Z,97539.41
2023-01-19T19:57:04.522Z,97528.81
2023-01-19T19:59:36.479Z,97530.84
2023-01-19T20:02:12.565Z,97533.53
2023-01-19T20:04:44.987Z,97541.09
2023-01-19T20:07:18.022Z,97536.44
2023-01-19T20:09:51.078Z,97537.88
2023-01-19T20:12:23.813Z,97537.50
2023-01-19T20:14:56.581Z,97540.72
2023-01-19T20:17:29.591Z,97544.91
2023-01-19T20:20:04.287Z,97552.25
2023-01-19T20:22:37.024Z,97548.69
2023-01-19T20:25:09.736Z,97550.22
2023-01-19T20:27:44.952Z,97552.00
2023-01-19T20:30:17.214Z,97558.06
2023-01-19T20:32:51.756Z,97555.88
2023-01-19T20:35:24.999Z,97557.13
2023-01-19T20:37:57.755Z,97562.31
2023-01-19T20:40:30.076Z,97565.97
2023-01-19T20:43:01.981Z,97561.22
2023-01-19T20:45:34.764Z,97567.75
2023-01-19T20:48:07.090Z,97571.16
2023-01-19T20:50:39.875Z,97559.44
2023-01-19T20:53:12.684Z,97559.13
2023-01-19T20:55:45.381Z,97563.00
2023-01-19T20:58:17.306Z,97567.50
2023-01-19T21:00:50.899Z,97572.25
2023-01-19T21:03:23.659Z,97567.28
2023-01-19T21:05:58.593Z,97575.44
2023-01-19T21:08:32.199Z,97576.81
2023-01-19T21:11:06.178Z,97580.81
2023-01-19T21:13:39.100Z,97581.34
2023-01-19T21:16:11.683Z,97583.22
2023-01-19T21:18:44.495Z,97573.25
2023-01-19T21:21:29.310Z,97582.31
2023-01-19T21:24:04.042Z,97592.97
2023-01-19T21:26:37.327Z,97591.41
2023-01-19T21:29:13.635Z,97593.19
2023-01-19T21:31:46.221Z,97594.56
2023-01-19T21:34:18.148Z,97600.31
2023-01-19T21:36:51.332Z,97605.56
2023-01-19T21:39:23.778Z,97609.44
2023-01-19T21:41:55.724Z,97605.22
2023-01-19T21:44:28.484Z,97607.41
2023-01-19T21:47:00.567Z,97607.47
2023-01-19T21:49:33.298Z,97606.16
2023-01-19T21:52:05.832Z,97607.72
2023-01-19T21:54:38.199Z,97611.06
2023-01-19T21:57:10.129Z,97616.75
2023-01-19T21:59:42.870Z,97625.56
2023-01-19T22:02:15.041Z,97623.81
2023-01-19T22:04:48.484Z,97622.44
2023-01-19T22:07:20.968Z,97631.13
2023-01-19T22:09:53.702Z,97623.63
2023-01-19T22:12:26.179Z,97634.56
2023-01-19T22:14:58.072Z,97627.06
2023-01-19T22:17:30.789Z,97630.44
2023-01-19T22:20:06.652Z,97622.97
2023-01-19T22:22:38.966Z,97637.53
2023-01-19T22:25:11.248Z,97632.47
2023-01-19T22:27:44.636Z,97643.75
2023-01-19T22:30:17.908Z,97637.66
2023-01-19T22:32:50.008Z,97640.66
2023-01-19T22:35:22.807Z,97645.88
2023-01-19T22:37:55.224Z,97642.59
2023-01-19T22:40:27.452Z,97641.50
2023-01-19T22:43:00.187Z,97649.22
2023-01-19T22:45:32.057Z,97643.53
2023-01-19T22:48:04.992Z,97648.03
2023-01-19T22:50:36.885Z,97652.78
2023-01-19T22:53:09.732Z,97652.84
2023-01-19T22:55:41.641Z,97653.38
2023-01-19T22:58:14.354Z,97650.00
2023-01-19T23:00:46.305Z,97659.69
2023-01-19T23:03:19.028Z,97661.69
2023-01-19T23:05:50.970Z,97665.78
2023-01-19T23:08:23.750Z,97661.69
2023-01-19T23:10:56.150Z,97664.19
2023-01-19T23:13:28.113Z,97657.38
2023-01-19T23:16:01.260Z,97666.50
2023-01-19T23:18:33.873Z,97668.88
2023-01-19T23:21:10.497Z,97668.41
2023-01-19T23:23:44.512Z,97660.38
2023-01-19T23:26:20.894Z,97667.25
2023-01-19T23:29:01.902Z,97679.84
2023-01-19T23:31:37.140Z,97678.31
2023-01-19T23:34:12.495Z,97670.00
2023-01-19T23:36:45.477Z,97661.63
2023-01-19T23:39:21.170Z,97674.28
2023-01-19T23:41:53.965Z,97677.09
2023-01-19T23:44:25.853Z,97673.50
2023-01-19T23:46:58.916Z,97677.75
2023-01-19T23:49:30.823Z,97675.66
2023-01-19T23:52:03.668Z,97677.84
2023-01-19T23:54:36.046Z,97677.53
2023-01-19T23:57:08.767Z,97676.53
2023-01-19T23:59:40.696Z,97675.44
